Tiempo atmosférico en la estación meteorológica de Tazacorte, Santa Cruz de Tenerife (30 m.)



Fecha
DESCASC
Temp. máxima en grados centígrados (hora)
DESCASC
Temp. mínima en grados centígrados (hora)
DESCASC
Temp. media en grados centígrados
DESCASC
Racha de viento máxima en m/sg (hora)
DESCASC
Velocidad máxima media en intervalos de 10 minutos(hora)
DESCASC
Precipitaciones diarias en mm
DESCASC
Precipitaciones de 00:00 a 06:00 en mm
DESCASC
Precipitaciones de 06:00 a 12:00 en mm
DESCASC
Precipitaciones de 12:00 a 18:00 en mm
DESCASC
Precipitaciones de 18:00 a 24:00 en mm
DESCASC
09-01-2020 21.4 (15:40) 17.1 (00:00) 19.3 12.22 (05:40) 4.72 (18:50) 0 0 0 0 0
10-01-2020 22 (14:40) 16.6 (00:00) 19.3 11.39 (06:10) 4.17 (05:40) 0 0 0 0 0
07-01-2020 21.8 (14:00) 16.8 (00:00) 19.3 11.39 (02:30) 4.17 (01:40) 0 0 0 0 0
05-01-2020 21.3 (14:50) 15.2 (00:00) 18.2 10.83 (23:50) 5.28 (23:50) 0 0 0 0 0
08-01-2020 22.6 (13:50) 17.1 (00:00) 19.9 10.83 (08:40) 3.89 (08:50) 0 0 0 0 0
21-01-2020 20.7 (11:50) 14.8 (00:00) 17.8 10.56 (15:50) 5 (18:10) 0 0 0 0 0
01-01-2020 21.8 (12:40) 16.3 (00:00) 19 10.28 (14:40) 4.17 (13:00) 0 0 0 0 0
14-01-2020 21.8 (14:10) 15.8 (00:00) 18.8 9.72 (10:50) 4.44 (10:30) 0 0 0 0 0
06-01-2020 20.4 (11:30) 15.6 (00:00) 18 9.44 (23:59) 5.28 (00:10) 0 0 0 0 0
12-01-2020 21 (11:50) 16 (05:10) 18.5 8.33 (19:20) 2.78 (07:00) 0 0 0 0 0
29-12-2019 25.3 (14:10) 17.1 (00:00) 21.2 8.06 (15:20) 3.61 (19:10) 0 0 0 0 0
20-01-2020 20.8 (15:30) 15.7 (00:00) 18.2 7.78 (13:00) 4.17 (13:40) 0 0 0 0 0
15-01-2020 21.1 (12:50) 14.6 (00:00) 17.9 6.67 (14:30) 3.33 (05:10) 0 0 0 0 0
24-01-2020 20.4 (13:00) 14.8 (00:00) 17.6 6.39 (12:10) 3.61 (06:10) 0 0 0 0 0
25-01-2020 20.5 (14:50) 14.6 (00:00) 17.6 6.11 (12:40) 3.33 (13:00) 0 0 0 0 0
11-01-2020 21.1 (15:10) 16.2 (00:00) 18.7 5.83 (13:00) 3.33 (22:20) 0 0 0 0 0
23-01-2020 19.8 (13:20) 14 (00:00) 16.9 5.83 (13:30) 3.06 (13:30) 0 0 0 0 0
02-01-2020 21.4 (14:50) 15.5 (00:00) 18.4 5.83 (06:40) 3.61 (06:30) 0 0 0 0 0
22-01-2020 20.4 (14:20) 13.7 (00:00) 17 5.56 (02:50) 3.61 (05:20) 0 0 0 0 0
31-12-2019 22.4 (13:20) 15.9 (00:00) 19.1 5.28 (16:30) 3.33 (15:30) 0 0 0 0 0
16-01-2020 20.7 (14:00) 15.1 (00:00) 17.9 5 (06:40) 3.89 (07:10) 0 0 0 0 0
17-01-2020 20.7 (14:20) 14.4 (00:00) 17.6 5 (15:10) 3.33 (02:40) 0 0 0 0 0
03-01-2020 20.8 (13:50) 14.8 (00:00) 17.8 5 (05:20) 3.89 (05:10) 0 0 0 0 0
04-01-2020 21.6 (14:20) 15 (00:00) 18.3 4.72 (05:00) 3.61 (05:00) 0 0 0 0 0
18-01-2020 21.7 (15:00) 14.1 (00:00) 17.9 4.72 (04:30) 3.33 (04:30) 0 0 0 0 0
28-12-2019 23.2 (15:10) 17.1 (00:00) 20.2 4.72 (17:50) 2.78 (16:40) 0 0 0 0 0
13-01-2020 20.6 (15:30) 15.1 (00:00) 17.9 4.44 (05:20) 3.33 (05:10) 0 0 0 0 0
27-12-2019 22.7 (14:50) 16.1 (00:00) 19.4 4.17 (02:50) 3.06 (02:50) 0 0 0 0 0
30-12-2019 24.3 (14:10) 17.6 (00:00) 20.9 4.17 (08:50) 3.33 (07:50) 0 0 0 0 0
19-01-2020 22.2 (15:20) 15.4 (00:00) 18.8 3.89 (01:10) 2.78 (03:10) 0 0 0 0 0

Gráficas

Temp. máximas Temp. mínimas Temp. medias Precipitaciones Rachas de viento máximas Velocidades máximas media en intervalos de 10 minutos

Datos horarios

Fecha y hora oficial Temperatura (ºC) Velocidad del viento (km/h) Dirección del viento Racha (km/h) Dirección de racha Precipitación (mm) Presión (hPa) Tendencia (hPa) Humedad (%)
2020-01-25 23:00:00 16.4 8 Este 12 Este 0 1017.9 1.3 64
2020-01-25 22:00:00 16.9 6 Sudeste 17 Sur 0 1017.6 1.5 67
2020-01-25 21:00:00 17.5 8 Sudeste 17 Sudeste 0 1017 1.3 66
2020-01-25 20:00:00 17.6 7 Sudeste 17 Sudeste 0 1016.6 1.2 70
2020-01-25 19:00:00 18.5 4 Sur 10 Sudoeste 0 1016.1 0.8 66
2020-01-25 18:00:00 19.4 4 Oeste 16 Oeste 0 1015.7 0.2 64
2020-01-25 17:00:00 20.2 6 Oeste 15 Oeste 0 1015.4 -0.7 63
2020-01-25 16:00:00 19.9 8 Oeste 19 Oeste 0 1015.3 -1.5 63
2020-01-25 15:00:00 20.5 10 Noroeste 21 Noroeste 0 1015.5 -1.9 61
2020-01-25 14:00:00 20.2 10 Noroeste 21 Oeste 0 1016.1 -1.3 62
2020-01-25 13:00:00 19.8 12 Noroeste 22 Noroeste 0 1016.8 0.1 62
2020-01-25 12:00:00 19.1 5 Noroeste 12 Noroeste 0 1017.4 1.5 61
2020-01-25 11:00:00 18.2 4 Sudoeste 9 Sur 0 1017.4 2.2 60
2020-01-25 10:00:00 16.8 3 Este 13 Este 0 1016.7 2.2 62
2020-01-25 09:00:00 15.2 8 Este 13 Este 0 1015.9 1.8 64
2020-01-25 08:00:00 14.7 8 Este 13 Este 0 1015.2 1.1 64
2020-01-25 07:00:00 14.8 7 Este 13 Nordeste 0 1014.5 0.4 65
2020-01-25 06:00:00 15.4 5 Este 12 Este 0 1014.1 -0.1 64
2020-01-25 05:00:00 15.3 7 Este 13 Este 0 1014.1 -0.3 61
2020-01-25 04:00:00 15.3 8 Este 13 Nordeste 0 1014.1 -0.5 60
2020-01-25 03:00:00 15.1 9 Este 16 Este 0 1014.2 -0.6 62
2020-01-25 02:00:00 15.1 8 Este 13 Este 0 1014.4 -0.5 63
2020-01-25 01:00:00 15.7 7 Este 12 Este 0 1014.6 -0.1 63
2020-01-25 00:00:00 15.9 7 Sudeste 14 Sudeste 0 1014.8 0.3 67
2020-01-24 23:00:00 16.4 5 Sudeste 10 Sur 0 1014.9 0.8 69
2020-01-24 22:00:00 16.5 3 Este 15 Norte 0 1014.7 1.4 68
2020-01-24 21:00:00 16.9 6 Norte 16 Noroeste 0 1014.5 1.6 67
2020-01-24 20:00:00 17.1 6 Norte 19 Noroeste 0 1014.1 1.5 69
2020-01-24 19:00:00 17.4 8 Noroeste 19 Noroeste 0 1013.3 0.8 71
2020-01-24 18:00:00 18.7 7 Noroeste 18 Noroeste 0 1012.9 0.2 68
2020-01-24 17:00:00 19.5 9 Noroeste 15 Noroeste 0 1012.6 -0.5 64
2020-01-24 16:00:00 19.7 9 Noroeste 17 Noroeste 0 1012.5 -1.3 61
2020-01-24 15:00:00 19.7 10 Noroeste 18 Noroeste 0 1012.7 -1.8 60
2020-01-24 14:00:00 19.7 10 Noroeste 18 Noroeste 0 1013.1 -1.6 61
2020-01-24 13:00:00 20.4 9 Noroeste 23 Noroeste 0 1013.8 -0.3 60
2020-01-24 12:00:00 19.2 8 Noroeste 19 Noroeste 0 1014.5 1.1 67
2020-01-24 11:00:00 18 4 Noroeste 10 Noroeste 0 1014.7 1.9 69
2020-01-24 10:00:00 17.3 2 Norte 11 Este 0 1014.1 1.8 67
2020-01-24 09:00:00 15.8 6 Este 16 Este 0 1013.4 1.3 72
2020-01-24 08:00:00 15.2 10 Nordeste 15 Nordeste 0 1012.8 0.5 72
2020-01-24 07:00:00 14.9 10 Este 17 Este 0 1012.3 -0.4 72
2020-01-24 06:00:00 14.9 12 Este 16 Este 0 1012.1 -0.7 69
2020-01-24 05:00:00 14.9 10 Este 15 Nordeste 0 1012.3 -0.8 68
2020-01-24 04:00:00 14.8 9 Este 13 Este 0 1012.7 -0.4 68
2020-01-24 03:00:00 15 5 Este 14 Este 0 1012.8 -0.7 66
2020-01-24 02:00:00 15.1 8 Este 12 Este 0 1013.1 -0.3 69
2020-01-24 01:00:00 15.5 6 Nordeste 12 Este 0 1013.1 -0.3 68
2020-01-24 00:00:00 15.4 7 Este 13 Este 0 1013.5 0.6 69
2020-01-23 23:00:00 15.9 6 Este 11 Este 0 1013.4 0.9 71
2020-01-23 22:00:00 16 5 Este 10 Este 0 1013.4 1.7 72
2020-01-23 21:00:00 16.7 3 Nordeste 12 Noroeste 0 1012.9 1.4 71
2020-01-23 20:00:00 17 4 Noroeste 14 Norte 0 1012.5 1.3 73
2020-01-23 19:00:00 17.5 6 Noroeste 15 Noroeste 0 1011.7 0.3 70
2020-01-23 18:00:00 18.2 8 Noroeste 17 Noroeste 0 1011.5 0 65
2020-01-23 17:00:00 18.7 8 Noroeste 17 Noroeste 0 1011.2 -0.6 64
2020-01-23 16:00:00 19.1 10 Noroeste 19 Noroeste 0 1011.4 -1.1 63
2020-01-23 15:00:00 19.3 11 Noroeste 20 Oeste 0 1011.5 -1.5 63
2020-01-23 14:00:00 19.4 9 Oeste 21 Noroeste 0 1011.8 -1.2 66
2020-01-23 13:00:00 19.5 9 Noroeste 18 Noroeste 0 1012.5 -0.1 60
2020-01-23 12:00:00 19 4 Oeste 13 Noroeste 0 1013 1.3 58
2020-01-23 11:00:00 17.9 4 Sudoeste 9 Sur 0 1013 1.8 61
2020-01-23 10:00:00 16.2 3 Sur 9 Este 0 1012.6 1.8 66
2020-01-23 09:00:00 14.5 7 Este 13 Este 0 1011.7 1.2 62
2020-01-23 08:00:00 14 9 Este 13 Este 0 1011.2 0.6 64
2020-01-23 07:00:00 14.5 8 Este 13 Este 0 1010.8 0 67
2020-01-23 06:00:00 14.5 8 Este 11 Este 0 1010.5 -0.6 67
2020-01-23 05:00:00 14.9 6 Este 14 Nordeste 0 1010.6 -0.8 64
2020-01-23 04:00:00 15.1 9 Nordeste 15 Este 0 1010.8 -1 64
2020-01-23 03:00:00 15 7 Este 12 Nordeste 0 1011.1 -0.7 64
2020-01-23 02:00:00 15.5 5 Este 12 Este 0 1011.4 -0.5 65
2020-01-23 01:00:00 15.4 2 Nordeste 14 Noroeste 0 1011.8 -0.2 72
2020-01-23 00:00:00 16.2 4 Nordeste 17 Este 0 1011.8 0.1 60
2020-01-22 23:00:00 16.3 6 Nordeste 12 Norte 0 1011.9 0.8 61
2020-01-22 22:00:00 16.3 5 Nordeste 13 Nordeste 0 1012 1.7 63
2020-01-22 21:00:00 16.6 4 Norte 14 Noroeste 0 1011.7 1.6 65
2020-01-22 20:00:00 16.9 6 Noroeste 18 Noroeste 0 1011.1 1.2 63
2020-01-22 19:00:00 17.2 6 Noroeste 18 Noroeste 0 1010.3 0.5 61
2020-01-22 18:00:00 18.5 10 Noroeste 19 Noroeste 0 1010.1 -0.1 58
2020-01-22 17:00:00 19.4 8 Noroeste 17 Oeste 0 1009.9 -0.5 58
2020-01-22 16:00:00 19.7 8 Noroeste 14 Noroeste 0 1009.8 -1.3 56
2020-01-22 15:00:00 20 5 Sudoeste 16 Oeste 0 1010.2 -1.6 58
2020-01-22 14:00:00 19.6 6 Sur 15 Sur 0 1010.4 -1.6 59
2020-01-22 13:00:00 19.2 4 Sudoeste 14 Oeste 0 1011.1 -0.7 60
2020-01-22 12:00:00 18.5 8 Noroeste 15 Noroeste 0 1011.8 0.8 63
2020-01-22 11:00:00 17.9 4 Sudoeste 8 Sudoeste 0 1012 1.2 61
2020-01-22 10:00:00 16.2 3 Este 12 Este 0 1011.8 1.2 59
2020-01-22 09:00:00 14.4 8 Este 16 Este 0 1011 1.1 57
2020-01-22 08:00:00 13.8 11 Este 17 Este 0 1010.8 0.9 62
2020-01-22 07:00:00 14.1 10 Este 15 Este 0 1010.6 0.8 61
2020-01-22 06:00:00 14.1 10 Este 17 Este 0 1009.9 0 59
2020-01-22 05:00:00 14.8 11 Nordeste 16 Este 0 1009.9 0 60
2020-01-22 04:00:00 15 10 Este 19 Este 0 1009.8 -0.4 59
2020-01-22 03:00:00 15.5 6 Nordeste 20 Norte 0 1009.9 -0.3 59
2020-01-22 02:00:00 14.6 5 Este 13 Este 0 1009.9 -0.2 72
2020-01-22 01:00:00 15.2 6 Este 14 Este 0 1010.2 0.3 70
2020-01-22 00:00:00 14.9 9 Este 14 Sudeste 0 1010.2 0.6 70
2020-01-21 23:00:00 14.9 7 Este 12 Este 0 1010.1 0.9 72
2020-01-21 22:00:00 15.5 4 Nordeste 9 Nordeste 0 1009.9 1.8 71
2020-01-21 21:00:00 15.6 2 Nordeste 8 Sur 0 1009.6 1.9 71
2020-01-21 20:00:00 16.4 5 Sur 16 Sur 0 1009.2 1.7 70
2020-01-21 19:00:00 16.9 11 Sur 30 Sur 0 1008.1 0.2 66
2020-01-21 18:00:00 17.6 17 Sudeste 30 Sur 0 1007.7 0.1 63
2020-01-21 17:00:00 17.7 11 Sur 29 Noroeste 0 1007.5 -0.7 65
2020-01-21 16:00:00 17 18 Noroeste 38 Noroeste 0 1007.9 -1.1 71
2020-01-21 15:00:00 18.8 11 Noroeste 31 Noroeste 0 1007.6 -1.9 63
2020-01-21 14:00:00 19.6 9 Noroeste 20 Noroeste 0 1008.2 -1.4 57
2020-01-21 13:00:00 19.8 8 Noroeste 16 Oeste 0 1009 0 56
2020-01-21 12:00:00 20 9 Sur 24 Sur 0 1009.5 1.1 59
2020-01-21 11:00:00 18 8 Sur 14 Sur 0 1009.6 1.5 64
2020-01-21 10:00:00 17.5 6 Sur 12 Sudeste 0 1009 1.2 66
2020-01-21 09:00:00 16.5 5 Este 10 Este 0 1008.4 0.6 61
2020-01-21 08:00:00 16.3 5 Este 11 Este 0 1008.1 0.1 63
2020-01-21 07:00:00 16.2 6 Este 12 Nordeste 0 1007.8 -0.3 64
2020-01-21 06:00:00 16.1 7 Este 11 Este 0 1007.8 -0.7 64
2020-01-21 05:00:00 16.8 5 Este 14 Nordeste 0 1008 -0.8 63
2020-01-21 04:00:00 16.9 6 Nordeste 12 Nordeste 0 1008.1 -1.2 65
2020-01-21 03:00:00 16.9 9 Nordeste 18 Nordeste 0 1008.5 -1.2 61
2020-01-21 02:00:00 16.6 8 Nordeste 13 Este 0 1008.8 -1.1 68
2020-01-21 01:00:00 17 5 Sudeste 12 Sudeste 0 1009.3 -0.3 68
2020-01-21 00:00:00 17.1 8 Este 15 Este 0 1009.7 0.5 67
2020-01-20 23:00:00 16.9 5 Norte 19 Noroeste 0 1009.9 1 68
2020-01-20 22:00:00 17.1 4 Norte 8 Norte 0 1009.6 0.8 71
2020-01-20 21:00:00 17.6 3 Sur 11 Sudeste 0 1009.2 0.4 69
2020-01-20 20:00:00 17.5 0 Calma 6 Noroeste 0 1008.9 0 69
2020-01-20 19:00:00 18.1 5 Noroeste 9 Norte 0 1008.8 0 67
2020-01-20 18:00:00 19.2 4 Noroeste 16 Sudoeste 0 1008.8 -0.2 63
2020-01-20 17:00:00 20 7 Sur 22 Sudeste 0 1008.9 -0.5 62
2020-01-20 16:00:00 20.4 10 Sur 15 Sur 0 1008.8 -1.7 61
2020-01-20 15:00:00 20.5 5 Sudoeste 15 Noroeste 0 1009 -2.1 63
2020-01-20 14:00:00 20.1 8 Noroeste 26 Noroeste 0 1009.4 -2.2 66
2020-01-20 13:00:00 20 14 Noroeste 28 Norte 0 1010.5 -0.7 68
2020-01-20 12:00:00 19 8 Noroeste 14 Noroeste 0 1011.1 0.1 71
2020-01-20 11:00:00 18.9 3 Sudoeste 9 Sudoeste 0 1011.6 0.9 77
2020-01-20 10:00:00 17.8 3 Este 9 Este 0 1011.2 0.5 81
2020-01-20 09:00:00 16.1 5 Este 15 Este 0 1011 0.3 76
2020-01-20 08:00:00 15.7 8 Este 13 Este 0 1010.7 -0.6 77
2020-01-20 07:00:00 16.1 7 Este 10 Este 0 1010.7 -1.1 75
2020-01-20 06:00:00 16.2 6 Este 11 Este 0 1010.7 -1.6 71
2020-01-20 05:00:00 15.8 8 Este 12 Este 0 1011.3 -1.4 71
2020-01-20 04:00:00 16 8 Este 12 Este 0 1011.8 -1.6 84
2020-01-20 03:00:00 16.3 7 Este 12 Este 0 1012.3 -1.9 82
2020-01-20 02:00:00 16.4 8 Este 12 Este 0 1012.7 -2.2 83
2020-01-20 01:00:00 16.6 8 Este 12 Este 0 1013.4 -1.5 74
2020-01-20 00:00:00 16.7 6 Este 10 Este 0 1014.2 -0.9 75
2020-01-19 23:00:00 17.4 4 Este 9 Nordeste 0 1014.9 0 68
2020-01-19 22:00:00 17.9 7 Nordeste 13 Este 0 1014.9 0.1 64
2020-01-19 21:00:00 17.8 5 Nordeste 11 Este 0 1015.1 -0.2 70
2020-01-19 20:00:00 17.6 3 Nordeste 6 Este 0 1014.9 -0.7 66
2020-01-19 19:00:00 18.2 0 Calma 5 Sudeste 0 1014.8 -0.8 68
2020-01-19 18:00:00 19.7 3 Sudoeste 10 Sur 0 1015.3 -0.4 63
2020-01-19 17:00:00 20 4 Sur 10 Sur 0 1015.6 -1.1 67
2020-01-19 16:00:00 21.4 5 Oeste 11 Oeste 0 1015.6 -2.4 58
2020-01-19 15:00:00 21.8 5 Noroeste 14 Oeste 0 1015.7 -2.9 47
2020-01-19 14:00:00 21.1 5 Norte 10 Norte 0 1016.7 -2.1 52
2020-01-19 13:00:00 21.4 5 Noroeste 11 Oeste 0 1018 -0.9 41
2020-01-19 12:00:00 21.2 5 Sur 10 Sur 0 1018.6 -0.3 41
2020-01-19 11:00:00 20.1 6 Sur 11 Sur 0 1018.8 0.4 44
2020-01-19 10:00:00 17.4 3 Sudeste 10 Este 0 1018.9 1 43
2020-01-19 09:00:00 16.7 6 Este 11 Este 0 1018.9 1 36
2020-01-19 08:00:00 16 6 Este 11 Este 0 1018.4 0.9 35
2020-01-19 07:00:00 16 8 Este 13 Este 0 1017.9 0.2 39
2020-01-19 06:00:00 15.7 7 Este 12 Este 0 1017.9 -0.3 52
2020-01-19 05:00:00 15.4 10 Este 13 Este 0 1017.5 -1 53
2020-01-19 04:00:00 15.6 9 Este 12 Este 0 1017.7 -1.3 56
2020-01-19 03:00:00 15.7 8 Este 12 Este 0 1018.2 -1.2 64
2020-01-19 02:00:00 16 8 Este 14 Este 0 1018.5 -1.1 67
2020-01-19 01:00:00 16 9 Este 12 Este 0 1019 -0.5 64
2020-01-19 00:00:00 16.5 7 Este 11 Este 0 1019.4 0 58
2020-01-18 23:00:00 16.8 8 Este 13 Este 0 1019.6 0.5 56
2020-01-18 22:00:00 17.4 8 Este 11 Este 0 1019.5 0.4 54
2020-01-18 21:00:00 17.7 7 Este 10 Nordeste 0 1019.4 0.5 52
2020-01-18 20:00:00 17.8 5 Nordeste 8 Norte 0 1019.1 0.2 54
2020-01-18 19:00:00 18.4 3 Norte 6 Norte 0 1019.1 -0.3 67
2020-01-18 18:00:00 19.6 3 Norte 8 Noroeste 0 1018.9 -0.9 61
2020-01-18 17:00:00 20.4 5 Oeste 9 Noroeste 0 1018.9 -1.4 56
2020-01-18 16:00:00 21.1 5 Oeste 10 Oeste 0 1019.4 -1.9 51
2020-01-18 15:00:00 21.7 4 Sudoeste 10 Sur 0 1019.8 -2.3 50
2020-01-18 14:00:00 20.9 5 Sudoeste 10 Noroeste 0 1020.3 -2 56
2020-01-18 13:00:00 20.4 5 Noroeste 10 Oeste 0 1021.3 -1.1 54
2020-01-18 12:00:00 19.5 3 Noroeste 9 Sudoeste 0 1022.1 0.3 63
2020-01-18 11:00:00 18.4 0 Calma 7 Noroeste 0 1022.3 1.2 64
2020-01-18 10:00:00 16.5 2 Este 9 Este 0 1022.4 2.1 60
2020-01-18 09:00:00 14.6 8 Este 11 Este 0 1021.8 1.9 61
2020-01-18 08:00:00 14.5 6 Este 11 Este 0 1021.1 0.9 50
2020-01-18 07:00:00 15.2 6 Nordeste 15 Este 0 1020.3 -0.4 62
2020-01-18 06:00:00 15.2 8 Nordeste 13 Nordeste 0 1019.9 -0.7 65
2020-01-18 05:00:00 15 9 Este 17 Este 0 1020.2 -0.7 60
2020-01-18 04:00:00 14.8 9 Este 13 Este 0 1020.7 -0.6 53
2020-01-18 03:00:00 15 9 Este 13 Este 0 1020.6 -1.4 53
2020-01-18 02:00:00 15.1 8 Este 13 Este 0 1020.9 -0.9 54
2020-01-18 01:00:00 15.4 8 Este 12 Este 0 1021.3 -0.3 54
2020-01-18 00:00:00 15.7 7 Este 12 Este 0 1022 0.9 53
2020-01-17 23:00:00 16 8 Este 12 Este 0 1021.8 1 53
2020-01-17 22:00:00 16.6 8 Este 12 Este 0 1021.6 1.4 54
2020-01-17 21:00:00 16.8 9 Este 12 Nordeste 0 1021.1 1.2 56
2020-01-17 20:00:00 17.3 5 Nordeste 7 Este 0 1020.8 1 57
2020-01-17 19:00:00 17.8 2 Norte 6 Oeste 0 1020.2 0.4 56
2020-01-17 18:00:00 19.2 4 Noroeste 11 Noroeste 0 1019.9 -0.1 54
2020-01-17 17:00:00 19.7 7 Noroeste 16 Noroeste 0 1019.8 -0.8 53
2020-01-17 16:00:00 20.3 9 Noroeste 18 Noroeste 0 1019.8 -1.7 53
2020-01-17 15:00:00 20.2 9 Noroeste 17 Oeste 0 1020 -2.1 54
2020-01-17 14:00:00 20.4 7 Noroeste 14 Noroeste 0 1020.6 -1.5 57
2020-01-17 13:00:00 19.6 9 Noroeste 16 Oeste 0 1021.5 -0.2 57
2020-01-17 12:00:00 19.6 5 Noroeste 12 Norte 0 1022.1 1.3 56
2020-01-17 11:00:00 18.6 3 Noroeste 8 Noroeste 0 1022.1 1.5 55
2020-01-17 10:00:00 17.1 6 Este 14 Nordeste 0 1021.7 1.6 58
2020-01-17 09:00:00 14.9 11 Este 14 Este 0 1020.8 1.1 57
2020-01-17 08:00:00 14.6 11 Este 13 Este 0 1020.6 0.7 57
2020-01-17 07:00:00 14.6 9 Este 14 Este 0 1020.1 0.2 57
2020-01-17 06:00:00 14.8 9 Este 13 Este 0 1019.7 0.1 57
2020-01-17 05:00:00 15.3 10 Este 15 Este 0 1019.9 0.1 59
2020-01-17 04:00:00 15.4 10 Este 15 Este 0 1019.9 -0.2 55
2020-01-17 03:00:00 15.3 12 Este 15 Este 0 1019.6 -0.9 48
2020-01-17 02:00:00 15.4 11 Este 15 Este 0 1019.8 -0.7 52
2020-01-17 01:00:00 15.6 10 Este 14 Este 0 1020.1 -0.2 50
2020-01-17 00:00:00 15.7 8 Este 14 Este 0 1020.5 0.4 51
2020-01-16 23:00:00 16 9 Este 14 Este 0 1020.5 1.2 51
2020-01-16 22:00:00 16.5 9 Este 12 Este 0 1020.3 1.5 50
2020-01-16 21:00:00 16.7 9 Este 12 Este 0 1020.1 1.6 50
2020-01-16 20:00:00 17.2 6 Este 9 Este 0 1019.3 1.1 51
2020-01-16 19:00:00 17.8 2 Norte 8 Noroeste 0 1018.8 0.9 51
2020-01-16 18:00:00 19 6 Noroeste 13 Noroeste 0 1018.5 0.6 49
2020-01-16 17:00:00 19.7 9 Noroeste 15 Noroeste 0 1018.2 -0.1 48
2020-01-16 16:00:00 20.1 9 Noroeste 15 Oeste 0 1017.9 -0.9 48
2020-01-16 15:00:00 20.4 9 Noroeste 18 Noroeste 0 1017.9 -1.4 47
2020-01-16 14:00:00 20.7 9 Noroeste 16 Noroeste 0 1018.3 -1.3 49
2020-01-16 13:00:00 20.3 5 Oeste 13 Noroeste 0 1018.8 -0.2 46
2020-01-16 12:00:00 19.5 7 Noroeste 14 Oeste 0 1019.3 1 49
2020-01-16 11:00:00 19 4 Noroeste 8 Noroeste 0 1019.6 1.8 40
2020-01-16 10:00:00 17.4 6 Este 15 Este 0 1019 2.1 38
2020-01-16 09:00:00 15.4 11 Este 17 Este 0 1018.3 2.3 38
2020-01-16 08:00:00 15.2 11 Este 18 Este 0 1017.8 1.8 42
2020-01-16 07:00:00 15.2 13 Este 18 Este 0 1016.9 0.5 43
2020-01-16 06:00:00 15.2 11 Este 16 Este 0 1016 -0.5 51
2020-01-16 05:00:00 15.6 10 Este 18 Este 0 1016 -0.1 44
2020-01-16 04:00:00 15.2 11 Este 17 Este 0 1016.4 -0.1 44
2020-01-16 03:00:00 15.5 10 Nordeste 14 Nordeste 0 1016.5 -0.5 46
2020-01-16 02:00:00 15.6 11 Este 15 Este 0 1016.1 -0.3 47
2020-01-16 01:00:00 15.9 9 Nordeste 15 Este 0 1016.5 0.7 51
2020-01-16 00:00:00 15.8 9 Este 15 Este 0 1017 1.5 52
2020-01-15 23:00:00 16.3 8 Este 14 Este 0 1016.4 1.3 53
2020-01-15 22:00:00 16.3 8 Este 14 Este 0 1015.8 1.4 53
2020-01-15 21:00:00 16.7 6 Este 14 Este 0 1015.5 1.5 56
2020-01-15 20:00:00 17.4 6 Sudeste 19 Sudeste 0 1015.1 1.5 58
2020-01-15 19:00:00 18 6 Sur 17 Sudoeste 0 1014.4 0.4 58
2020-01-15 18:00:00 19 8 Sur 21 Sur 0 1014 -0.1 62
2020-01-15 17:00:00 19.7 10 Sur 22 Sur 0 1013.6 -0.7 61
2020-01-15 16:00:00 20.5 12 Sur 23 Sudoeste 0 1014 -0.8 58
2020-01-15 15:00:00 20.8 9 Sur 24 Sur 0 1014.1 -1.2 59
2020-01-15 14:00:00 20.9 9 Sur 23 Sur 0 1014.3 -0.9 56
2020-01-15 13:00:00 20.8 8 Sur 22 Sur 0 1014.8 -0.3 53
2020-01-15 12:00:00 20.5 9 Sur 21 Sur 0 1015.3 0.7 51
2020-01-15 11:00:00 19 5 Sur 11 Sudoeste 0 1015.2 1 46
2020-01-15 10:00:00 17.2 4 Nordeste 13 Este 0 1015.1 1.3 43
2020-01-15 09:00:00 15 9 Este 15 Este 0 1014.6 1.4 49
2020-01-15 08:00:00 14.7 10 Este 15 Este 0 1014.2 0.9 44
2020-01-15 07:00:00 15.3 8 Nordeste 15 Este 0 1013.8 0.6 47
2020-01-15 06:00:00 15.4 10 Nordeste 16 Este 0 1013.2 -0.2 48
2020-01-15 05:00:00 15.1 11 Nordeste 15 Este 0 1013.3 -0.3 49
2020-01-15 04:00:00 15.3 8 Este 14 Este 0 1013.2 -0.5 54
2020-01-15 03:00:00 15.3 11 Este 16 Este 0 1013.4 -0.6 51
2020-01-15 02:00:00 16 8 Nordeste 16 Este 0 1013.6 -0.3 53
2020-01-15 01:00:00 15.5 11 Este 16 Este 0 1013.7 0.1 52
2020-01-15 00:00:00 16.7 6 Este 16 Sudeste 0 1014 0.9 62
2020-01-14 23:00:00 16.5 8 Este 14 Este 0 1013.9 1.1 57
2020-01-14 22:00:00 16.5 6 Este 13 Este 0 1013.6 1.7 54
2020-01-14 21:00:00 16.7 8 Este 15 Sudeste 0 1013.1 1.3 52
2020-01-14 20:00:00 17.7 6 Este 18 Sudeste 0 1012.8 0.8 58
2020-01-14 19:00:00 18.1 6 Sur 23 Sur 0 1011.9 0.2 62
2020-01-14 18:00:00 19 10 Sur 25 Sudoeste 0 1011.8 0.1 63
2020-01-14 17:00:00 20.2 9 Sur 22 Sur 0 1012 -0.3 60
2020-01-14 16:00:00 20.9 12 Sur 27 Sur 0 1011.7 -1.4 56
2020-01-14 15:00:00 21.4 12 Sur 25 Sur 0 1011.7 -1.9 55
2020-01-14 14:00:00 21.6 13 Sur 24 Sur 0 1012.3 -1.6 57
2020-01-14 13:00:00 21.3 12 Sur 26 Sur 0 1013.1 0.1 59
2020-01-14 12:00:00 20.8 13 Sur 28 Sur 0 1013.6 1.2 61
2020-01-14 11:00:00 20.1 14 Sur 35 Sudeste 0 1013.9 1.4 55
2020-01-14 10:00:00 19.1 15 Sur 27 Sur 0 1013 1.2 50
2020-01-14 09:00:00 18 14 Sudeste 32 Sudeste 0 1012.4 1.1 44
2020-01-14 08:00:00 17.5 12 Sudeste 22 Sudeste 0 1012.5 1.3 39
2020-01-14 07:00:00 16.5 3 Este 18 Sur 0 1011.8 0.3 37
2020-01-14 06:00:00 16.2 5 Este 14 Nordeste 0 1011.3 -0.4 38
2020-01-14 05:00:00 17.1 6 Este 13 Este 0 1011.2 -1.1 36
2020-01-14 04:00:00 16.4 8 Este 13 Este 0 1011.5 -1.3 40
2020-01-14 03:00:00 16.5 10 Este 13 Este 0 1011.7 -1.7 42
2020-01-14 02:00:00 16.4 6 Nordeste 12 Este 0 1012.3 -1.6 55
2020-01-14 01:00:00 16.4 9 Nordeste 12 Este 0 1012.8 -1.3 61
2020-01-14 00:00:00 16.3 7 Este 12 Este 0 1013.4 -0.7 66
2020-01-13 23:00:00 16.5 6 Este 13 Este 0 1013.9 0.3 68
2020-01-13 22:00:00 16.4 7 Este 12 Este 0 1014.1 1 60
2020-01-13 21:00:00 16.7 6 Este 10 Este 0 1014.1 1.1 64
2020-01-13 20:00:00 17 5 Este 8 Este 0 1013.6 0.7 67
2020-01-13 19:00:00 17.7 0 Calma 4 Oeste 0 1013.1 0 67
2020-01-13 18:00:00 18.9 2 Oeste 9 Sudoeste 0 1013 -0.5 63
2020-01-13 17:00:00 19.5 3 Noroeste 10 Oeste 0 1012.9 -1.3 62
2020-01-13 16:00:00 19.9 5 Noroeste 12 Oeste 0 1013.1 -2.1 63
2020-01-13 15:00:00 20.3 4 Oeste 12 Noroeste 0 1013.5 -2.5 62
2020-01-13 14:00:00 20.1 4 Oeste 10 Sudoeste 0 1014.2 -1.9 63
2020-01-13 13:00:00 20 5 Sudoeste 10 Sudoeste 0 1015.2 -1 63
2020-01-13 12:00:00 19.1 4 Sudoeste 10 Sudoeste 0 1016 0.1 65
2020-01-13 11:00:00 18.5 4 Sudoeste 8 Oeste 0 1016.1 0.6 66
2020-01-13 10:00:00 17.2 3 Nordeste 10 Este 0 1016.2 0.7 58
2020-01-13 09:00:00 15.6 7 Este 14 Este 0 1015.9 0.8 58
2020-01-13 08:00:00 15.5 9 Este 14 Este 0 1015.5 0.5 61
2020-01-13 07:00:00 15.2 10 Este 14 Este 0 1015.5 0.5 65
2020-01-13 06:00:00 15.5 8 Este 16 Nordeste 0 1015.1 0 65
2020-01-13 05:00:00 15.4 11 Este 15 Este 0 1015 -0.5 65
2020-01-13 04:00:00 15.4 8 Este 13 Este 0 1015 -1 70
2020-01-13 03:00:00 15.9 8 Este 14 Este 0 1015.1 -1.2 70
2020-01-13 02:00:00 16.3 7 Este 10 Este 0 1015.5 -0.9 75
2020-01-13 01:00:00 17.3 6 Este 10 Nordeste 0 1016 -0.2 73
2020-01-13 00:00:00 17 5 Este 12 Este 0 1016.3 0 72
2020-01-12 23:00:00 16.7 6 Este 13 Este 0 1016.4 0.6 70
2020-01-12 22:00:00 17.1 9 Este 14 Este 0 1016.2 0.1 67
2020-01-12 21:00:00 18.1 4 Sudeste 16 Nordeste 0 1016.3 0 65
2020-01-12 20:00:00 18.2 3 Norte 30 Nordeste 0 1015.8 -0.1 62
2020-01-12 19:00:00 18.6 5 Este 29 Nordeste 0 1016.1 0.5 61
2020-01-12 18:00:00 19.2 0 Calma 6 Sur 0 1016.3 0.4 67
2020-01-12 17:00:00 19.7 0 Calma 11 Sudoeste 0 1015.9 -1.2 67
2020-01-12 16:00:00 20.5 5 Sudoeste 10 Sudoeste 0 1015.6 -2.2 63
2020-01-12 15:00:00 20 4 Sudeste 11 Sudeste 0 1015.9 -1.8 64
2020-01-12 14:00:00 19.8 3 Sudoeste 14 Oeste 0 1017.1 -1.1 68
2020-01-12 13:00:00 20.2 6 Oeste 14 Sudoeste 0 1017.8 0.1 67
2020-01-12 12:00:00 20.6 3 Sudoeste 13 Sudeste 0 1017.7 0.9 64
2020-01-12 11:00:00 19.1 4 Sudeste 14 Sudeste 0 1018.2 0.9 71
2020-01-12 10:00:00 17.5 4 Sur 12 Este 0 1017.7 1 78
2020-01-12 09:00:00 16.4 6 Este 13 Este 0 1016.8 1 78
2020-01-12 08:00:00 16.8 6 Este 17 Este 0 1017.3 1.4 75
2020-01-12 07:00:00 16.2 10 Este 16 Este 0 1016.7 0.1 75
2020-01-12 06:00:00 16.1 10 Este 15 Este 0 1015.8 -2.1 78
2020-01-12 05:00:00 16.2 8 Este 14 Este 0 1015.9 -2.1 78
2020-01-12 04:00:00 16.5 6 Sudeste 19 Norte 0 1016.6 -1.3 79
2020-01-12 03:00:00 17.4 6 Este 15 Este 0 1017.9 -0.8 74
2020-01-12 02:00:00 17.3 7 Este 13 Este 0 1018 -0.7 71
2020-01-12 01:00:00 17.5 2 Oeste 21 Nordeste 0 1017.9 0 65
2020-01-12 00:00:00 17.7 3 Este 13 Este 0 1018.7 0.5 70
2020-01-11 23:00:00 17.9 6 Sudeste 18 Sudeste 0 1018.7 1 67
2020-01-11 22:00:00 17.7 4 Sur 13 Sudeste 0 1017.9 0.5 68
2020-01-11 21:00:00 18.6 3 Oeste 10 Sudoeste 0 1018.2 1.1 71
2020-01-11 20:00:00 18.4 0 Calma 9 Sudeste 0 1017.7 0.6 70
2020-01-11 19:00:00 19 4 Sudoeste 10 Sudoeste 0 1017.4 0.5 67
2020-01-11 18:00:00 19.7 5 Sudoeste 13 Oeste 0 1017.1 0 65
2020-01-11 17:00:00 20.3 4 Sudoeste 10 Oeste 0 1017.1 -1 63
2020-01-11 16:00:00 20.9 6 Sur 16 Sur 0 1016.9 -2.4 62
2020-01-11 15:00:00 20.8 8 Sur 16 Sur 0 1017.1 -3 62
2020-01-11 14:00:00 20 4 Sudoeste 17 Noroeste 0 1018.1 -2.4 65
2020-01-11 13:00:00 19.6 10 Noroeste 21 Norte 0 1019.3 -0.6 67
2020-01-11 12:00:00 19.7 9 Noroeste 16 Noroeste 0 1020.1 0.8 69
2020-01-11 11:00:00 18.8 4 Oeste 10 Oeste 0 1020.5 1.8 72
2020-01-11 10:00:00 18.1 0 Calma 3 Sudeste 0 1019.9 1.6 80
2020-01-11 09:00:00 17.5 2 Sur 9 Sudeste 0 1019.3 1.2 80
2020-01-11 08:00:00 17 4 Este 10 Este 0 1018.7 0.4 77
2020-01-11 07:00:00 17 8 Este 10 Este 0 1018.3 -0.5 75
2020-01-11 06:00:00 17.1 6 Este 13 Este 0 1018.1 -1 74
2020-01-11 05:00:00 16.8 9 Este 13 Este 0 1018.3 -0.7 74
2020-01-11 04:00:00 17.1 7 Este 12 Este 0 1018.8 -0.6 75
2020-01-11 03:00:00 16.6 8 Este 13 Este 0 1019.1 -0.8 75
2020-01-11 02:00:00 16.4 7 Este 14 Este 0 1019 -1.2 78
2020-01-11 01:00:00 16.7 7 Este 13 Este 0 1019.4 -1.1 76
2020-01-11 00:00:00 16.7 8 Este 13 Este 0 1019.9 -0.4 81
2020-01-10 23:00:00 16.7 8 Este 11 Este 0 1020.2 0.3 78
2020-01-10 22:00:00 17.1 6 Este 10 Este 0 1020.5 0.8 79
2020-01-10 21:00:00 17.5 6 Este 10 Este 0 1020.3 0.9 83
2020-01-10 20:00:00 18 5 Sudeste 10 Sudeste 0 1019.9 0.7 82
2020-01-10 19:00:00 18.9 3 Sur 10 Sur 0 1019.7 0.6 77
2020-01-10 18:00:00 20.2 6 Sur 14 Sur 0 1019.4 0.1 71
2020-01-10 17:00:00 20.6 9 Sur 14 Sur 0 1019.2 -0.6 70
2020-01-10 16:00:00 20.8 6 Sur 14 Sudoeste 0 1019.1 -1.4 67
2020-01-10 15:00:00 21.8 8 Sudoeste 17 Sudoeste 0 1019.3 -2.1 67
2020-01-10 14:00:00 21.1 7 Sur 17 Sur 0 1019.8 -1.8 69
2020-01-10 13:00:00 21.1 8 Sur 18 Sur 0 1020.5 -0.9 67
2020-01-10 12:00:00 21 5 Sur 17 Sudeste 0 1021.4 0.9 67
2020-01-10 11:00:00 19.7 9 Sudeste 21 Noroeste 0 1021.6 1.3 71
2020-01-10 10:00:00 18.3 2 Nordeste 14 Sudeste 0 1021.4 1.7 71
2020-01-10 09:00:00 18.1 7 Sudeste 28 Norte 0 1020.5 1.5 68
2020-01-10 08:00:00 18.1 6 Este 27 Noroeste 0 1020.3 0.8 70
2020-01-10 07:00:00 18.7 8 Norte 41 Norte 0 1019.7 -0.5 64
2020-01-10 06:00:00 18.7 10 Norte 38 Noroeste 0 1019 -1.4 66
2020-01-10 05:00:00 18.5 10 Norte 29 Norte 0 1019.5 -0.6 63
2020-01-10 04:00:00 18.3 11 Norte 38 Norte 0 1020.2 -0.5 62
2020-01-10 03:00:00 18.6 7 Norte 31 Nordeste 0 1020.4 -0.9 60
2020-01-10 02:00:00 18.1 0 Calma 28 Noroeste 0 1020.1 -1.3 65
2020-01-10 01:00:00 18.4 11 Norte 28 Nordeste 0 1020.7 -0.8 60
2020-01-10 00:00:00 18.1 11 Sur 35 Sudeste 0 1021.3 -0.3 63
2020-01-09 23:00:00 19 9 Sudeste 32 Norte 0 1021.4 0.1 60
2020-01-09 22:00:00 18.5 5 Nordeste 35 Sur 0 1021.5 1 60
2020-01-09 21:00:00 18.3 7 Sudeste 35 Sudeste 0 1021.6 1.4 59
2020-01-09 20:00:00 17.9 8 Sur 40 Sudeste 0 1021.3 0.8 60
2020-01-09 19:00:00 18.1 10 Sudeste 42 Sudeste 0 1020.5 0.4 60
2020-01-09 18:00:00 19.2 5 Sur 13 Sur 0 1020.2 0.1 67
2020-01-09 17:00:00 20.2 9 Sur 18 Sur 0 1020.5 -0.1 66
2020-01-09 16:00:00 21 8 Sur 16 Sur 0 1020.1 -1.3 63
2020-01-09 15:00:00 21.1 10 Sur 17 Sur 0 1020.1 -2 66
2020-01-09 14:00:00 20.5 8 Sur 20 Sudeste 0 1020.6 -1.8 67
2020-01-09 13:00:00 20.1 10 Sur 19 Sur 0 1021.4 -0.4 68
2020-01-09 12:00:00 20.2 6 Sur 24 Sudeste 0 1022.1 1.1 63
2020-01-09 11:00:00 19.8 9 Sudeste 27 Sudeste 0 1022.4 2.1 59
2020-01-09 10:00:00 18.3 5 Sudeste 26 Sudeste 0 1021.8 2.2 67
2020-01-09 09:00:00 17.6 5 Sudeste 21 Sudeste 0 1021 2.1 67
2020-01-09 08:00:00 17.1 8 Este 16 Sudeste 0 1020.3 0.9 66
2020-01-09 07:00:00 17.4 8 Este 23 Este 0 1019.6 -0.3 61
2020-01-09 06:00:00 18.2 13 Norte 44 Norte 0 1018.9 -1.2 58
2020-01-09 05:00:00 17.5 0 Calma 27 Norte 0 1019.4 -0.9 61
2020-01-09 04:00:00 17.8 4 Este 24 Nordeste 0 1019.9 -0.4 60
2020-01-09 03:00:00 17.7 5 Norte 24 Norte 0 1020.1 -0.8 66
2020-01-09 02:00:00 17.7 9 Norte 24 Norte 0 1020.3 -0.6 67
2020-01-09 01:00:00 17.4 0 Calma 19 Este 0 1020.3 -0.7 67
2020-01-09 00:00:00 17.9 3 Nordeste 20 Nordeste 0 1020.9 0.2 69
2020-01-08 23:00:00 18.2 0 Calma 11 Este 0 1020.9 0.5 68
2020-01-08 22:00:00 18.4 2 Sudoeste 16 Nordeste 0 1021 0.9 64
2020-01-08 21:00:00 18.3 10 Norte 21 Norte 0 1020.7 0.6 62
2020-01-08 20:00:00 18.7 6 Norte 23 Sudeste 0 1020.4 0.8 58
2020-01-08 19:00:00 18.9 10 Sur 25 Sudeste 0 1020.1 0.8 57
2020-01-08 18:00:00 20.4 5 Sudoeste 12 Sudoeste 0 1020.1 0.8 59
2020-01-08 17:00:00 21.1 6 Sudoeste 14 Sudoeste 0 1019.6 0.3 56
2020-01-08 16:00:00 21.6 6 Sudoeste 15 Sudoeste 0 1019.3 -0.5 55
2020-01-08 15:00:00 21.5 8 Sudoeste 24 Oeste 0 1019.3 -1 56
2020-01-08 14:00:00 22.4 10 Sudoeste 21 Sudoeste 0 1019.3 -1.2 55
2020-01-08 13:00:00 21.9 9 Sur 20 Sudoeste 0 1019.8 -0.6 52
2020-01-08 12:00:00 21.1 4 Sudeste 25 Norte 0 1020.3 0.6 53
2020-01-08 11:00:00 20.1 3 Sudoeste 25 Nordeste 0 1020.5 1.4 55
2020-01-08 10:00:00 18.6 3 Este 25 Norte 0 1020.4 2.2 57
2020-01-08 09:00:00 18.1 13 Norte 39 Norte 0 1019.7 1.4 55
2020-01-08 08:00:00 17.6 13 Norte 33 Norte 0 1019.1 0.6 56
2020-01-08 07:00:00 17.6 12 Norte 37 Norte 0 1018.2 -0.6 55
2020-01-08 06:00:00 17.3 0 Calma 31 Norte 0 1018.3 -0.7 58
2020-01-08 05:00:00 17.7 2 Norte 34 Norte 0 1018.5 -0.7 56
2020-01-08 04:00:00 17.6 10 Noroeste 30 Norte 0 1018.8 -0.6 53
2020-01-08 03:00:00 17.7 5 Este 31 Noroeste 0 1019 -0.8 53
2020-01-08 02:00:00 17.7 0 Calma 30 Norte 0 1019.2 -0.8 54
2020-01-08 01:00:00 18.4 4 Nordeste 25 Norte 0 1019.4 -0.6 55
2020-01-08 00:00:00 18.6 6 Norte 26 Norte 0 1019.8 -0.1 56
2020-01-07 23:00:00 18.6 6 Norte 23 Norte 0 1020 0.7 56
2020-01-07 22:00:00 18.2 9 Norte 19 Norte 0 1020 1.2 54
2020-01-07 21:00:00 18.1 2 Nordeste 18 Norte 0 1019.9 1.8 55
2020-01-07 20:00:00 18.2 3 Sur 21 Este 0 1019.3 1.3 56
2020-01-07 19:00:00 18.8 8 Sudeste 20 Sudeste 0 1018.8 1.2 56
2020-01-07 18:00:00 19.9 7 Noroeste 14 Noroeste 0 1018.1 0.6 58
2020-01-07 17:00:00 20.3 5 Noroeste 16 Noroeste 0 1018 0.2 58
2020-01-07 16:00:00 21.2 5 Noroeste 28 Norte 0 1017.6 -0.7 55
2020-01-07 15:00:00 21 6 Este 34 Este 0 1017.5 -2 50
2020-01-07 14:00:00 21.8 4 Noroeste 27 Norte 0 1017.8 -1.9 51
2020-01-07 13:00:00 20.7 6 Sudeste 30 Este 0 1018.3 -1.2 50
2020-01-07 12:00:00 20.5 7 Nordeste 30 Norte 0 1019.5 1 55
2020-01-07 11:00:00 19 7 Norte 35 Noroeste 0 1019.7 1.8 55
2020-01-07 10:00:00 17.8 13 Norte 33 Nordeste 0 1019.5 2.3 56
2020-01-07 09:00:00 17.6 4 Nordeste 28 Nordeste 0 1018.5 1.9 58
2020-01-07 08:00:00 17.5 6 Norte 27 Nordeste 0 1017.9 1.5 55
2020-01-07 07:00:00 18 6 Nordeste 33 Noroeste 0 1017.2 0.6 61
2020-01-07 06:00:00 18 6 Este 31 Norte 0 1016.6 -0.1 54
2020-01-07 05:00:00 17.2 6 Este 33 Nordeste 0 1016.4 -0.6 56
2020-01-07 04:00:00 17.9 9 Sudeste 30 Noroeste 0 1016.6 -0.7 53
2020-01-07 03:00:00 17.9 6 Nordeste 41 Norte 0 1016.7 -1.2 56
2020-01-07 02:00:00 17.6 6 Norte 34 Norte 0 1017 -1.1 56
2020-01-07 01:00:00 18 9 Norte 40 Nordeste 0 1017.3 -1.1 54
2020-01-07 00:00:00 17.8 10 Norte 34 Sur 0 1017.9 -0.3 60
2020-01-06 23:00:00 17.5 9 Norte 28 Sudeste 0 1018.1 0.1 67
2020-01-06 22:00:00 17.8 4 Sudeste 21 Sudeste 0 1018.4 0.8 53
2020-01-06 21:00:00 16.7 0 Calma 8 Este 0 1018.2 0.7 77
2020-01-06 20:00:00 17.4 4 Sudeste 12 Sur 0 1018 0.1 75
2020-01-06 19:00:00 18.3 5 Sur 14 Sudeste 0 1017.6 0.2 73
2020-01-06 18:00:00 19.6 6 Sudoeste 11 Sur 0 1017.5 -0.2 70
2020-01-06 17:00:00 19.8 5 Sur 12 Sur 0 1017.9 -0.2 69
2020-01-06 16:00:00 20.3 6 Sudoeste 12 Sudoeste 0 1017.4 -1.5 67
2020-01-06 15:00:00 19.7 5 Oeste 13 Noroeste 0 1017.7 -2.2 67
2020-01-06 14:00:00 19.7 7 Noroeste 14 Noroeste 0 1018.1 -2.4 66
2020-01-06 13:00:00 19.9 3 Sur 11 Sur 0 1018.9 -1.1 67
2020-01-06 12:00:00 19.8 2 Sudoeste 12 Sudoeste 0 1019.9 0.8 68
2020-01-06 11:00:00 19.8 6 Sur 17 Sur 0 1020.5 1.8 67
2020-01-06 10:00:00 18.2 0 Calma 17 Sudeste 0 1020 1.5 65
2020-01-06 09:00:00 16.4 8 Nordeste 16 Nordeste 0 1019.1 0.2 67